createdAt,value
2022-10-17T00:00:55.613Z,77.01
2022-10-17T00:01:58.586Z,77.22
2022-10-17T00:03:01.617Z,76.81
2022-10-17T00:04:04.656Z,76.63
2022-10-17T00:05:07.887Z,76.77
2022-10-17T00:06:13.166Z,76.75
2022-10-17T00:07:16.008Z,76.52
2022-10-17T00:08:19.539Z,76.70
2022-10-17T00:09:22.427Z,76.38
2022-10-17T00:10:25.279Z,76.04
2022-10-17T00:11:28.370Z,76.12
2022-10-17T00:12:31.280Z,76.16
2022-10-17T00:13:34.540Z,76.00
2022-10-17T00:14:37.876Z,76.24
2022-10-17T00:15:44.485Z,76.13
2022-10-17T00:16:47.408Z,76.01
2022-10-17T00:17:50.559Z,75.40
2022-10-17T00:18:53.827Z,75.38
2022-10-17T00:19:58.856Z,75.29
2022-10-17T00:21:01.671Z,75.19
2022-10-17T00:22:04.585Z,75.05
2022-10-17T00:23:07.621Z,75.04
2022-10-17T00:24:10.613Z,75.18
2022-10-17T00:25:13.831Z,75.39
2022-10-17T00:26:17.618Z,75.32
2022-10-17T00:27:20.501Z,75.32
2022-10-17T00:28:23.646Z,75.28
2022-10-17T00:29:26.661Z,75.01
2022-10-17T00:30:29.675Z,75.08
2022-10-17T00:31:32.612Z,75.55
2022-10-17T00:32:35.608Z,75.47
2022-10-17T00:33:41.118Z,75.73
2022-10-17T00:34:44.188Z,75.86
2022-10-17T00:35:47.219Z,75.92
2022-10-17T00:36:50.044Z,75.63
2022-10-17T00:37:52.855Z,75.45
2022-10-17T00:38:58.428Z,75.59
2022-10-17T00:40:01.409Z,75.70
2022-10-17T00:41:04.493Z,75.93
2022-10-17T00:42:07.341Z,75.79
2022-10-17T00:43:18.504Z,75.99
2022-10-17T00:44:30.441Z,75.98
2022-10-17T00:45:33.251Z,76.32
2022-10-17T00:46:38.476Z,76.07
2022-10-17T00:47:43.498Z,76.30
2022-10-17T00:48:48.219Z,75.89
2022-10-17T00:49:51.224Z,75.93
2022-10-17T00:50:54.308Z,76.21
2022-10-17T00:52:01.972Z,75.98
2022-10-17T00:53:07.142Z,75.90
2022-10-17T00:54:11.705Z,75.88
2022-10-17T00:55:20.266Z,75.84
2022-10-17T00:56:23.625Z,75.91
2022-10-17T00:57:31.916Z,75.90
2022-10-17T00:58:35.023Z,76.10
2022-10-17T00:59:40.623Z,76.07
2022-10-17T01:00:45.021Z,76.12
2022-10-17T01:02:02.260Z,76.26
2022-10-17T01:03:05.101Z,76.54
2022-10-17T01:04:08.177Z,76.55
2022-10-17T01:05:12.130Z,76.64
2022-10-17T01:06:15.219Z,76.67
2022-10-17T01:07:18.052Z,76.76
2022-10-17T01:08:21.264Z,76.74
2022-10-17T01:09:25.425Z,76.85
2022-10-17T01:10:35.290Z,76.71
2022-10-17T01:11:38.096Z,76.98
2022-10-17T01:13:11.812Z,76.83
2022-10-17T01:14:56.300Z,76.52
2022-10-17T01:16:09.744Z,76.54
2022-10-17T01:17:44.663Z,76.83
2022-10-17T01:19:05.939Z,76.57
2022-10-17T01:20:42.624Z,76.64
2022-10-17T01:21:58.530Z,76.51
2022-10-17T01:23:31.974Z,76.75
2022-10-17T01:24:53.053Z,77.02
2022-10-17T01:26:08.173Z,76.84
2022-10-17T01:27:10.901Z,76.62
2022-10-17T01:28:19.831Z,76.46
2022-10-17T01:30:13.612Z,76.33
2022-10-17T01:31:20.732Z,76.13
2022-10-17T01:32:32.973Z,76.24
2022-10-17T01:33:41.499Z,76.22
2022-10-17T01:34:54.343Z,76.14
2022-10-17T01:36:04.803Z,76.10
2022-10-17T01:37:28.255Z,75.52
2022-10-17T01:38:43.134Z,75.56
2022-10-17T01:39:50.893Z,75.56
2022-10-17T01:41:07.976Z,75.64
2022-10-17T01:42:31.067Z,75.73
2022-10-17T01:43:40.334Z,75.55
2022-10-17T01:44:56.752Z,75.19
2022-10-17T01:46:06.417Z,75.20
2022-10-17T01:47:15.371Z,75.18
2022-10-17T01:48:23.017Z,75.37
2022-10-17T01:49:30.011Z,75.31
2022-10-17T01:50:37.615Z,75.30
2022-10-17T01:51:49.257Z,75.10
2022-10-17T01:52:53.981Z,74.62
2022-10-17T01:54:05.538Z,74.48
2022-10-17T01:55:25.977Z,74.37
2022-10-17T01:56:31.901Z,73.94
2022-10-17T01:57:40.216Z,73.77
2022-10-17T01:58:59.294Z,74.09
2022-10-17T02:00:06.571Z,74.13
2022-10-17T02:01:12.163Z,74.29
2022-10-17T02:02:17.893Z,74.45
2022-10-17T02:03:22.293Z,74.74
2022-10-17T02:04:26.537Z,74.90
2022-10-17T02:05:33.932Z,75.12
2022-10-17T02:06:38.165Z,75.17
2022-10-17T02:07:43.852Z,75.14
2022-10-17T02:08:49.145Z,75.09
2022-10-17T02:09:52.099Z,74.84
2022-10-17T02:11:22.552Z,74.84
2022-10-17T02:12:59.699Z,74.77
2022-10-17T02:14:39.182Z,74.73
2022-10-17T02:15:56.540Z,74.55
2022-10-17T02:17:07.362Z,74.61
2022-10-17T02:18:10.698Z,74.79
2022-10-17T02:19:34.765Z,74.77
2022-10-17T02:20:52.916Z,74.63
2022-10-17T02:22:12.198Z,74.57
2022-10-17T02:23:23.942Z,74.44
2022-10-17T02:24:48.250Z,74.70
2022-10-17T02:26:12.484Z,74.31
2022-10-17T02:27:45.456Z,74.11
2022-10-17T02:29:07.474Z,74.08
2022-10-17T02:30:21.786Z,73.77
2022-10-17T02:31:31.614Z,73.85
2022-10-17T02:32:45.412Z,73.93
2022-10-17T02:34:00.547Z,73.54
2022-10-17T02:35:07.326Z,73.52
2022-10-17T02:36:16.521Z,73.36
2022-10-17T02:37:24.956Z,73.55
2022-10-17T02:38:30.636Z,73.35
2022-10-17T02:39:36.677Z,73.42
2022-10-17T02:40:41.125Z,73.69
2022-10-17T02:41:46.340Z,73.81
2022-10-17T02:42:51.778Z,74.07
2022-10-17T02:43:57.624Z,74.23
2022-10-17T02:45:03.778Z,74.44
2022-10-17T02:46:08.291Z,74.44
2022-10-17T02:47:28.104Z,74.72
2022-10-17T02:48:44.491Z,74.85
2022-10-17T02:50:00.026Z,75.11
2022-10-17T02:51:08.063Z,75.12
2022-10-17T02:52:15.068Z,75.03
2022-10-17T02:53:33.532Z,75.53
2022-10-17T02:54:54.652Z,75.46
2022-10-17T02:56:03.213Z,75.63
2022-10-17T02:57:27.903Z,75.58
2022-10-17T02:58:37.968Z,75.52
2022-10-17T02:59:42.860Z,75.84
2022-10-17T03:00:50.119Z,76.30
2022-10-17T03:01:53.454Z,76.29
2022-10-17T03:02:59.973Z,76.38
2022-10-17T03:04:14.985Z,76.59
2022-10-17T03:05:22.973Z,76.85
2022-10-17T03:06:25.929Z,76.51
2022-10-17T03:07:30.173Z,76.35
2022-10-17T03:08:33.404Z,76.65
2022-10-17T03:09:40.094Z,76.89
2022-10-17T03:10:42.970Z,76.92
2022-10-17T03:11:45.771Z,76.67
2022-10-17T03:12:48.895Z,77.06
2022-10-17T03:13:51.693Z,77.44
2022-10-17T03:14:54.493Z,77.18
2022-10-17T03:15:57.982Z,77.17
2022-10-17T03:17:00.934Z,77.17
2022-10-17T03:18:04.390Z,77.20
2022-10-17T03:19:08.059Z,77.29
2022-10-17T03:20:11.341Z,77.20
2022-10-17T03:21:15.183Z,77.11
2022-10-17T03:22:18.063Z,77.10
2022-10-17T03:23:20.941Z,77.34
2022-10-17T03:24:23.859Z,76.99
2022-10-17T03:25:26.742Z,77.34
2022-10-17T03:26:29.929Z,77.58
2022-10-17T03:27:33.327Z,77.97
2022-10-17T03:28:36.687Z,78.01
2022-10-17T03:29:39.615Z,77.69
2022-10-17T03:30:42.414Z,78.15
2022-10-17T03:31:45.265Z,78.25
2022-10-17T03:32:48.035Z,78.19
2022-10-17T03:33:50.869Z,78.33
2022-10-17T03:34:57.183Z,78.42
2022-10-17T03:36:00.144Z,78.62
2022-10-17T03:37:03.221Z,78.59
2022-10-17T03:38:06.157Z,78.56
2022-10-17T03:39:08.991Z,78.83
2022-10-17T03:40:12.025Z,78.94
2022-10-17T03:41:15.278Z,78.92
2022-10-17T03:42:18.201Z,78.91
2022-10-17T03:43:21.077Z,79.50
2022-10-17T03:44:23.866Z,79.51
2022-10-17T03:45:26.703Z,79.41
2022-10-17T03:46:29.568Z,79.51
2022-10-17T03:47:32.732Z,79.49
2022-10-17T03:48:38.236Z,79.79
2022-10-17T03:49:41.102Z,79.70
2022-10-17T03:50:44.007Z,79.78
2022-10-17T03:51:46.936Z,80.42
2022-10-17T03:52:50.399Z,80.62
2022-10-17T03:53:53.383Z,80.54
2022-10-17T03:54:56.253Z,80.91
2022-10-17T03:56:13.420Z,81.02
2022-10-17T03:57:16.331Z,80.96
2022-10-17T03:58:19.753Z,81.56
2022-10-17T03:59:22.588Z,81.59
2022-10-17T04:00:25.488Z,81.71
2022-10-17T04:01:28.502Z,81.89
2022-10-17T04:02:31.583Z,81.71
2022-10-17T04:03:34.435Z,82.00
2022-10-17T04:04:37.227Z,82.16
2022-10-17T04:05:40.092Z,82.21
2022-10-17T04:06:42.846Z,82.22
2022-10-17T04:07:45.884Z,82.10
2022-10-17T04:08:49.003Z,82.32
2022-10-17T04:09:51.694Z,82.28
2022-10-17T04:11:01.831Z,81.99
2022-10-17T04:12:04.726Z,81.96
2022-10-17T04:13:07.574Z,81.95
2022-10-17T04:14:14.005Z,81.83
2022-10-17T04:15:18.118Z,81.88
2022-10-17T04:16:21.505Z,81.91
2022-10-17T04:17:24.573Z,81.99
2022-10-17T04:18:27.494Z,81.85
2022-10-17T04:19:32.199Z,82.14
2022-10-17T04:20:35.770Z,82.00
2022-10-17T04:21:38.889Z,81.89
2022-10-17T04:22:42.126Z,81.81
2022-10-17T04:23:44.950Z,81.81
2022-10-17T04:24:47.813Z,81.85
2022-10-17T04:25:50.639Z,81.81
2022-10-17T04:26:55.029Z,81.91
2022-10-17T04:28:01.192Z,82.15
2022-10-17T04:29:04.071Z,82.18
2022-10-17T04:30:07.534Z,82.16
2022-10-17T04:31:14.494Z,82.16
2022-10-17T04:32:17.600Z,82.30
2022-10-17T04:33:20.281Z,82.05
2022-10-17T04:34:23.137Z,81.79
2022-10-17T04:35:25.945Z,81.72
2022-10-17T04:36:28.766Z,81.29
2022-10-17T04:37:31.612Z,81.13
2022-10-17T04:38:35.037Z,80.40
2022-10-17T04:39:41.117Z,80.61
2022-10-17T04:40:43.971Z,79.71
2022-10-17T04:41:47.168Z,78.86
2022-10-17T04:42:50.009Z,78.37
2022-10-17T04:43:52.784Z,78.41
2022-10-17T04:44:55.586Z,78.09
2022-10-17T04:45:59.710Z,77.91
2022-10-17T04:47:02.691Z,77.91
2022-10-17T04:48:05.758Z,77.64
2022-10-17T04:49:09.443Z,77.42
2022-10-17T04:50:12.449Z,76.50
2022-10-17T04:51:18.828Z,76.61
2022-10-17T04:52:23.725Z,76.68
2022-10-17T04:53:27.344Z,76.64
2022-10-17T04:54:30.261Z,76.96
2022-10-17T04:55:38.386Z,76.64
2022-10-17T04:56:41.402Z,76.46
2022-10-17T04:57:44.381Z,76.18
2022-10-17T04:58:47.775Z,76.11
2022-10-17T04:59:51.409Z,76.18
2022-10-17T05:00:54.238Z,75.90
2022-10-17T05:01:57.082Z,75.94
2022-10-17T05:02:59.868Z,75.74
2022-10-17T05:04:02.804Z,76.07
2022-10-17T05:05:06.189Z,76.32
2022-10-17T05:06:14.535Z,76.32
2022-10-17T05:07:17.693Z,76.17
2022-10-17T05:08:20.620Z,76.16
2022-10-17T05:09:23.556Z,76.33
2022-10-17T05:10:26.379Z,75.39
2022-10-17T05:11:30.322Z,75.10
2022-10-17T05:12:33.283Z,75.30
2022-10-17T05:13:36.056Z,75.37
2022-10-17T05:14:38.834Z,74.99
2022-10-17T05:15:41.790Z,75.10
2022-10-17T05:16:44.607Z,75.13
2022-10-17T05:17:47.573Z,75.10
2022-10-17T05:18:53.067Z,75.10
2022-10-17T05:19:56.225Z,75.41
2022-10-17T05:20:59.122Z,75.29
2022-10-17T05:22:02.102Z,75.42
2022-10-17T05:23:04.967Z,75.76
2022-10-17T05:24:11.617Z,75.75
2022-10-17T05:25:14.522Z,75.98
2022-10-17T05:26:17.977Z,75.89
2022-10-17T05:27:20.867Z,75.82
2022-10-17T05:28:25.068Z,76.15
2022-10-17T05:29:28.080Z,75.90
2022-10-17T05:30:35.121Z,75.42
2022-10-17T05:31:40.709Z,75.42
2022-10-17T05:32:43.468Z,76.01
2022-10-17T05:33:46.421Z,75.88
2022-10-17T05:34:49.301Z,75.86
2022-10-17T05:35:52.181Z,76.08
2022-10-17T05:36:55.082Z,75.98
2022-10-17T05:38:00.235Z,75.99
2022-10-17T05:39:03.446Z,75.29
2022-10-17T05:40:10.072Z,75.41
2022-10-17T05:41:12.811Z,75.46
2022-10-17T05:42:15.701Z,75.36
2022-10-17T05:43:18.817Z,75.47
2022-10-17T05:44:21.576Z,75.64
2022-10-17T05:45:24.379Z,75.68
2022-10-17T05:46:27.293Z,75.49
2022-10-17T05:47:30.176Z,74.98
2022-10-17T05:48:35.029Z,75.25
2022-10-17T05:49:48.333Z,75.26
2022-10-17T05:51:09.530Z,75.00
2022-10-17T05:52:12.298Z,75.29
2022-10-17T05:53:15.736Z,75.40
2022-10-17T05:54:18.661Z,75.26
2022-10-17T05:55:21.836Z,75.11
2022-10-17T05:56:24.654Z,75.76
2022-10-17T05:57:27.739Z,75.33
2022-10-17T05:58:48.793Z,75.36
2022-10-17T05:59:52.399Z,75.11
2022-10-17T06:01:00.052Z,75.10
2022-10-17T06:02:03.102Z,75.49
2022-10-17T06:03:05.846Z,75.42
2022-10-17T06:04:08.805Z,75.33
2022-10-17T06:05:12.095Z,75.59
2022-10-17T06:06:15.915Z,75.72
2022-10-17T06:07:19.091Z,75.98
2022-10-17T06:08:22.466Z,75.85
2022-10-17T06:09:25.376Z,76.06
2022-10-17T06:10:28.217Z,76.50
2022-10-17T06:11:31.186Z,76.64
2022-10-17T06:12:34.125Z,76.65
2022-10-17T06:13:37.032Z,76.56
2022-10-17T06:14:39.917Z,76.34
2022-10-17T06:15:43.002Z,76.11
2022-10-17T06:16:45.878Z,76.12
2022-10-17T06:17:48.704Z,76.03
2022-10-17T06:18:51.899Z,76.27
2022-10-17T06:19:54.774Z,76.23
2022-10-17T06:21:09.108Z,76.54
2022-10-17T06:22:12.372Z,76.92
2022-10-17T06:23:17.180Z,76.39
2022-10-17T06:24:20.041Z,76.59
2022-10-17T06:25:22.852Z,77.01
2022-10-17T06:26:25.676Z,77.05
2022-10-17T06:27:28.529Z,77.04
2022-10-17T06:28:31.960Z,77.13
2022-10-17T06:29:34.810Z,77.07
2022-10-17T06:30:41.645Z,77.19
2022-10-17T06:31:44.541Z,77.26
2022-10-17T06:32:47.683Z,77.16
2022-10-17T06:33:50.523Z,77.18
2022-10-17T06:34:53.497Z,77.22
2022-10-17T06:35:57.001Z,77.18
2022-10-17T06:36:59.906Z,77.04
2022-10-17T06:38:08.210Z,77.17
2022-10-17T06:39:11.049Z,76.88
2022-10-17T06:40:16.142Z,76.79
2022-10-17T06:41:19.596Z,76.80
2022-10-17T06:42:22.496Z,76.96
2022-10-17T06:43:27.994Z,77.00
2022-10-17T06:44:32.154Z,76.92
2022-10-17T06:45:35.039Z,76.87
2022-10-17T06:46:41.264Z,76.88
2022-10-17T06:47:44.005Z,76.89
2022-10-17T06:48:46.886Z,76.91
2022-10-17T06:49:49.690Z,77.08
2022-10-17T06:50:52.519Z,77.16
2022-10-17T06:51:55.708Z,77.36
2022-10-17T06:52:58.686Z,77.39
2022-10-17T06:54:01.586Z,77.67
2022-10-17T06:55:08.190Z,77.67
2022-10-17T06:56:11.365Z,77.87
2022-10-17T06:57:14.188Z,77.76
2022-10-17T06:58:17.249Z,77.67
2022-10-17T06:59:23.188Z,77.68
2022-10-17T07:00:27.102Z,77.84
2022-10-17T07:01:31.501Z,77.63
2022-10-17T07:02:34.884Z,77.39
2022-10-17T07:03:37.916Z,77.29
2022-10-17T07:04:40.762Z,77.15
2022-10-17T07:05:43.711Z,76.89
2022-10-17T07:06:46.722Z,76.81
2022-10-17T07:07:51.040Z,76.15
2022-10-17T07:08:55.940Z,75.68
2022-10-17T07:09:59.444Z,75.97
2022-10-17T07:11:13.011Z,75.85
2022-10-17T07:12:15.931Z,76.06
2022-10-17T07:13:19.903Z,75.96
2022-10-17T07:14:27.030Z,74.66
2022-10-17T07:15:29.932Z,74.01
2022-10-17T07:16:32.866Z,74.04
2022-10-17T07:17:35.810Z,74.04
2022-10-17T07:18:39.024Z,74.10
2022-10-17T07:19:43.657Z,74.21
2022-10-17T07:20:54.006Z,74.00
2022-10-17T07:21:57.074Z,73.58
2022-10-17T07:23:00.100Z,73.09
2022-10-17T07:24:03.081Z,72.64
2022-10-17T07:25:06.592Z,71.96
2022-10-17T07:26:13.200Z,71.01
2022-10-17T07:27:15.980Z,70.78
2022-10-17T07:28:19.638Z,70.60
2022-10-17T07:29:22.590Z,70.44
2022-10-17T07:30:25.733Z,68.73
2022-10-17T07:31:28.674Z,69.00
2022-10-17T07:32:32.062Z,69.72
2022-10-17T07:33:35.480Z,69.69
2022-10-17T07:34:38.422Z,69.73
2022-10-17T07:35:41.474Z,69.23
2022-10-17T07:36:44.258Z,68.32
2022-10-17T07:37:47.355Z,67.46
2022-10-17T07:38:50.220Z,66.48
2022-10-17T07:39:53.012Z,65.64
2022-10-17T07:41:00.893Z,66.25
2022-10-17T07:42:03.925Z,66.44
2022-10-17T07:43:06.731Z,66.45
2022-10-17T07:44:09.612Z,66.32
2022-10-17T07:45:12.306Z,66.72
2022-10-17T07:46:15.698Z,67.46
2022-10-17T07:47:18.840Z,67.86
2022-10-17T07:48:23.414Z,67.96
2022-10-17T07:49:26.145Z,68.32
2022-10-17T07:50:29.565Z,67.81
2022-10-17T07:51:32.661Z,68.18
2022-10-17T07:52:36.154Z,67.96
2022-10-17T07:53:42.655Z,68.19
2022-10-17T07:54:48.015Z,67.54
2022-10-17T07:55:51.676Z,67.17
2022-10-17T07:56:54.547Z,64.81
2022-10-17T07:58:00.624Z,63.92
2022-10-17T07:59:05.342Z,64.54
2022-10-17T08:00:11.902Z,64.58
2022-10-17T08:01:15.821Z,64.64
2022-10-17T08:02:23.853Z,65.24
2022-10-17T08:03:26.601Z,65.60
2022-10-17T08:04:29.948Z,65.90
2022-10-17T08:05:38.097Z,65.07
2022-10-17T08:06:40.976Z,64.87
2022-10-17T08:07:44.085Z,65.38
2022-10-17T08:08:46.933Z,65.57
2022-10-17T08:09:53.286Z,65.58
2022-10-17T08:11:01.739Z,66.02
2022-10-17T08:12:04.791Z,66.09
2022-10-17T08:13:07.789Z,64.35
2022-10-17T08:14:11.688Z,64.04
2022-10-17T08:15:14.569Z,58.57
2022-10-17T08:16:18.245Z,59.01
2022-10-17T08:17:21.997Z,59.88
2022-10-17T08:18:27.913Z,60.81
2022-10-17T08:19:30.736Z,60.99
2022-10-17T08:20:33.538Z,62.20
2022-10-17T08:21:36.694Z,63.05
2022-10-17T08:22:39.904Z,62.86
2022-10-17T08:23:42.857Z,60.58
2022-10-17T08:24:46.531Z,60.49
2022-10-17T08:25:49.394Z,60.84
2022-10-17T08:26:53.570Z,59.86
2022-10-17T08:28:01.397Z,59.48
2022-10-17T08:29:04.456Z,60.21
2022-10-17T08:30:08.043Z,60.59
2022-10-17T08:31:14.516Z,56.61
2022-10-17T08:32:17.314Z,55.57
2022-10-17T08:33:24.255Z,55.13
2022-10-17T08:34:27.023Z,55.33
2022-10-17T08:35:29.995Z,53.49
2022-10-17T08:36:32.819Z,52.30
2022-10-17T08:37:37.260Z,53.20
2022-10-17T08:38:43.705Z,52.98
2022-10-17T08:39:46.885Z,50.75
2022-10-17T08:40:49.977Z,49.44
2022-10-17T08:42:10.882Z,50.41
2022-10-17T08:43:35.277Z,49.78
2022-10-17T08:44:44.098Z,49.08
2022-10-17T08:46:00.667Z,48.70
2022-10-17T08:47:10.485Z,48.92
2022-10-17T08:48:18.232Z,49.79
2022-10-17T08:49:48.107Z,49.23
2022-10-17T08:50:54.030Z,49.26
2022-10-17T08:52:07.575Z,49.40
2022-10-17T08:53:45.503Z,50.17
2022-10-17T08:54:49.387Z,48.67
2022-10-17T08:55:54.852Z,48.59
2022-10-17T08:56:57.886Z,49.40
2022-10-17T08:58:00.929Z,47.00
2022-10-17T08:59:11.017Z,47.07
2022-10-17T09:00:19.560Z,46.41
2022-10-17T09:01:45.979Z,46.39
2022-10-17T09:03:27.222Z,46.04
2022-10-17T09:04:49.622Z,45.22
2022-10-17T09:06:11.631Z,45.93
2022-10-17T09:07:27.935Z,45.75
2022-10-17T09:08:45.299Z,46.08
2022-10-17T09:09:53.850Z,45.42
2022-10-17T09:11:47.405Z,45.04
2022-10-17T09:12:53.012Z,42.83
2022-10-17T09:14:07.992Z,44.31
2022-10-17T09:15:13.792Z,45.21
2022-10-17T09:16:31.368Z,44.46
2022-10-17T09:17:52.822Z,44.72
2022-10-17T09:19:11.641Z,45.60
2022-10-17T09:20:24.774Z,46.56
2022-10-17T09:21:42.618Z,45.17
2022-10-17T09:22:52.438Z,43.32
2022-10-17T09:24:09.033Z,43.41
2022-10-17T09:25:17.703Z,44.10
2022-10-17T09:26:21.325Z,45.05
2022-10-17T09:28:02.050Z,43.85
2022-10-17T09:29:15.747Z,43.12
2022-10-17T09:30:46.375Z,44.06
2022-10-17T09:31:58.894Z,44.08
2022-10-17T09:33:18.729Z,44.31
2022-10-17T09:34:33.083Z,44.62
2022-10-17T09:35:37.265Z,43.54
2022-10-17T09:36:40.913Z,44.14
2022-10-17T09:37:45.264Z,43.99
2022-10-17T09:38:55.726Z,43.88
2022-10-17T09:39:58.635Z,41.79
2022-10-17T09:41:02.810Z,41.27
2022-10-17T09:42:06.594Z,43.25
2022-10-17T09:43:14.363Z,43.57
2022-10-17T09:44:30.129Z,43.51
2022-10-17T09:45:38.971Z,42.44
2022-10-17T09:46:53.848Z,42.69
2022-10-17T09:48:22.622Z,44.08
2022-10-17T09:49:37.563Z,43.30
2022-10-17T09:50:40.487Z,43.47
2022-10-17T09:51:43.952Z,43.74
2022-10-17T09:52:49.100Z,43.99
2022-10-17T09:53:57.256Z,42.53
2022-10-17T09:55:20.599Z,42.29
2022-10-17T09:56:23.527Z,42.47
2022-10-17T09:57:26.705Z,41.53
2022-10-17T09:59:01.691Z,41.75
2022-10-17T10:00:07.886Z,43.19
2022-10-17T10:01:23.951Z,42.07
2022-10-17T10:02:31.061Z,42.39
2022-10-17T10:03:34.214Z,40.39
2022-10-17T10:04:59.662Z,41.00
2022-10-17T10:06:13.950Z,41.51
2022-10-17T10:07:18.689Z,41.78
2022-10-17T10:08:23.817Z,42.16
2022-10-17T10:09:31.258Z,41.80
2022-10-17T10:10:34.300Z,42.70
2022-10-17T10:11:58.497Z,41.55
2022-10-17T10:13:25.948Z,41.41
2022-10-17T10:14:37.137Z,40.85
2022-10-17T10:15:51.173Z,40.92
2022-10-17T10:16:55.344Z,40.83
2022-10-17T10:18:02.288Z,41.00
2022-10-17T10:19:21.787Z,41.50
2022-10-17T10:20:29.290Z,41.74
2022-10-17T10:21:32.215Z,41.49
2022-10-17T10:22:39.189Z,41.52
2022-10-17T10:24:02.752Z,42.14
2022-10-17T10:25:15.207Z,41.91
2022-10-17T10:26:28.162Z,41.14
2022-10-17T10:28:42.546Z,40.70
2022-10-17T10:29:53.356Z,40.86
2022-10-17T10:30:58.316Z,40.54
2022-10-17T10:32:16.176Z,40.81
2022-10-17T10:33:22.639Z,40.42
2022-10-17T10:34:30.534Z,40.46
2022-10-17T10:35:37.526Z,40.63
2022-10-17T10:36:50.628Z,40.66
2022-10-17T10:37:57.095Z,40.76
2022-10-17T10:39:02.576Z,40.39
2022-10-17T10:40:21.515Z,40.85
2022-10-17T10:41:28.050Z,41.35
2022-10-17T10:42:33.781Z,42.14
2022-10-17T10:43:47.025Z,41.77
2022-10-17T10:44:50.976Z,40.51
2022-10-17T10:45:53.889Z,40.19
2022-10-17T10:47:08.393Z,40.56
2022-10-17T10:48:34.475Z,41.12
2022-10-17T10:49:39.605Z,41.61
2022-10-17T10:51:26.526Z,41.86
2022-10-17T10:52:41.800Z,42.15
2022-10-17T10:53:54.990Z,41.44
2022-10-17T10:55:11.690Z,39.34
2022-10-17T10:56:30.320Z,40.30
2022-10-17T10:57:36.927Z,40.31
2022-10-17T10:59:09.352Z,40.79
2022-10-17T11:00:21.898Z,40.92
2022-10-17T11:01:42.975Z,42.27
2022-10-17T11:03:11.740Z,41.69
2022-10-17T11:04:40.714Z,41.56
2022-10-17T11:05:59.504Z,41.23
2022-10-17T11:07:25.223Z,42.76
2022-10-17T11:08:41.113Z,41.36
2022-10-17T11:10:00.855Z,41.43
2022-10-17T11:11:19.747Z,40.79
2022-10-17T11:12:28.689Z,41.27
2022-10-17T11:13:54.210Z,40.75
2022-10-17T11:15:08.447Z,40.94
2022-10-17T11:16:32.289Z,40.94
2022-10-17T11:18:04.103Z,40.41
2022-10-17T11:19:40.477Z,40.50
2022-10-17T11:21:34.305Z,41.94
2022-10-17T11:22:48.923Z,42.45
2022-10-17T11:24:23.167Z,41.89
2022-10-17T11:25:34.159Z,42.68
2022-10-17T11:27:01.357Z,43.04
2022-10-17T11:28:21.196Z,41.25
2022-10-17T11:29:29.590Z,42.17
2022-10-17T11:31:57.097Z,40.63
2022-10-17T11:33:03.872Z,41.17
2022-10-17T11:34:19.756Z,41.54
2022-10-17T11:35:28.158Z,41.48
2022-10-17T11:36:35.934Z,40.76
2022-10-17T11:37:48.309Z,41.19
2022-10-17T11:39:09.143Z,41.08
2022-10-17T11:40:33.933Z,41.85
2022-10-17T11:41:53.368Z,42.00
2022-10-17T11:43:02.394Z,42.58
2022-10-17T11:44:13.840Z,43.87
2022-10-17T11:45:20.487Z,43.25
2022-10-17T11:46:26.408Z,43.53
2022-10-17T11:47:37.328Z,43.28
2022-10-17T11:48:51.811Z,42.64
2022-10-17T11:52:04.398Z,42.54
2022-10-17T11:53:14.466Z,42.95
2022-10-17T11:54:34.164Z,43.44
2022-10-17T11:55:40.744Z,42.91
2022-10-17T11:57:06.706Z,42.15
2022-10-17T11:58:42.391Z,43.12
2022-10-17T12:00:00.930Z,42.80
2022-10-17T12:01:21.634Z,43.98
2022-10-17T12:02:46.324Z,43.96
2022-10-17T12:03:54.848Z,43.79
2022-10-17T12:05:02.539Z,43.34
2022-10-17T12:06:27.083Z,42.82
2022-10-17T12:08:00.396Z,43.16
2022-10-17T12:09:42.221Z,42.05
2022-10-17T12:11:05.560Z,42.59
2022-10-17T12:12:08.688Z,42.05
2022-10-17T12:13:29.398Z,42.69
2022-10-17T12:14:45.987Z,42.79
2022-10-17T12:15:48.798Z,42.76
2022-10-17T12:16:52.054Z,43.00
2022-10-17T12:17:59.370Z,42.09
2022-10-17T12:19:02.579Z,42.21
2022-10-17T12:20:37.385Z,42.59
2022-10-17T12:22:26.608Z,43.11
2022-10-17T12:23:31.326Z,41.79
2022-10-17T12:24:43.640Z,41.10
2022-10-17T12:25:54.226Z,41.66
2022-10-17T12:27:19.002Z,40.58
2022-10-17T12:28:46.106Z,41.63
2022-10-17T12:29:49.785Z,41.34
2022-10-17T12:30:59.829Z,41.87
2022-10-17T12:32:13.262Z,42.04
2022-10-17T12:33:22.851Z,41.38
2022-10-17T12:34:25.816Z,42.10
2022-10-17T12:35:30.786Z,42.62
2022-10-17T12:36:33.994Z,42.85
2022-10-17T12:37:49.395Z,43.28
2022-10-17T12:39:14.906Z,42.71
2022-10-17T12:40:48.497Z,42.70
2022-10-17T12:41:51.878Z,42.21
2022-10-17T12:42:54.818Z,42.90
2022-10-17T12:43:57.764Z,43.29
2022-10-17T12:45:00.914Z,42.71
2022-10-17T12:46:05.069Z,42.91
2022-10-17T12:47:10.896Z,43.01
2022-10-17T12:48:34.035Z,42.08
2022-10-17T12:49:51.067Z,42.60
2022-10-17T12:52:37.001Z,42.54
2022-10-17T12:53:55.052Z,43.02
2022-10-17T12:55:13.925Z,42.66
2022-10-17T12:56:21.394Z,42.68
2022-10-17T12:57:40.530Z,42.96
2022-10-17T12:58:51.583Z,43.94
2022-10-17T12:59:57.904Z,43.69
2022-10-17T13:01:23.166Z,43.55
2022-10-17T13:02:28.274Z,43.90
2022-10-17T13:03:34.253Z,43.71
2022-10-17T13:04:37.406Z,44.31
2022-10-17T13:05:45.732Z,44.06
2022-10-17T13:06:54.433Z,43.69
2022-10-17T13:07:59.975Z,43.55
2022-10-17T13:09:08.012Z,43.19
2022-10-17T13:10:23.607Z,42.83
2022-10-17T13:11:30.618Z,42.74
2022-10-17T13:12:41.134Z,43.08
2022-10-17T13:13:54.523Z,42.57
2022-10-17T13:15:01.389Z,42.71
2022-10-17T13:16:04.839Z,42.94
2022-10-17T13:17:20.759Z,43.25
2022-10-17T13:18:27.860Z,43.83
2022-10-17T13:19:51.134Z,42.69
2022-10-17T13:21:14.739Z,42.34
2022-10-17T13:22:19.513Z,42.99
2022-10-17T13:23:26.620Z,43.86
2022-10-17T13:24:36.816Z,43.16
2022-10-17T13:25:39.738Z,43.44
2022-10-17T13:26:46.720Z,43.84
2022-10-17T13:27:50.847Z,44.08
2022-10-17T13:29:11.868Z,43.90
2022-10-17T13:30:32.447Z,44.26
2022-10-17T13:31:41.272Z,44.91
2022-10-17T13:32:45.386Z,43.46
2022-10-17T13:33:48.278Z,43.02
2022-10-17T13:35:17.519Z,43.06
2022-10-17T13:36:20.468Z,42.57
2022-10-17T13:37:23.562Z,43.44
2022-10-17T13:38:33.410Z,43.26
2022-10-17T13:40:00.208Z,44.09
2022-10-17T13:41:33.582Z,43.96
2022-10-17T13:42:38.624Z,43.30
2022-10-17T13:43:42.141Z,43.47
2022-10-17T13:44:46.226Z,43.29
2022-10-17T13:46:13.709Z,43.26
2022-10-17T13:47:31.018Z,43.11
2022-10-17T13:48:38.260Z,42.92
2022-10-17T13:49:44.490Z,43.27
2022-10-17T13:50:51.046Z,43.36
2022-10-17T13:51:55.523Z,43.28
2022-10-17T13:53:27.573Z,41.31
2022-10-17T13:54:33.019Z,41.53
2022-10-17T13:55:35.821Z,41.80
2022-10-17T13:56:39.038Z,42.10
2022-10-17T13:57:42.102Z,42.64
2022-10-17T13:58:50.905Z,43.22
2022-10-17T14:00:01.907Z,43.29
2022-10-17T14:02:34.377Z,44.50
2022-10-17T14:03:48.206Z,44.75
2022-10-17T14:05:23.117Z,44.58
2022-10-17T14:06:28.462Z,44.54
2022-10-17T14:08:05.511Z,43.73
2022-10-17T14:09:05.806Z,43.54
2022-10-17T14:10:37.203Z,43.01
2022-10-17T14:11:42.906Z,43.62
2022-10-17T14:12:50.309Z,43.76
2022-10-17T14:13:56.676Z,43.03
2022-10-17T14:15:13.797Z,42.86
2022-10-17T14:16:18.428Z,42.97
2022-10-17T14:17:30.505Z,43.31
2022-10-17T14:18:37.830Z,43.61
2022-10-17T14:19:40.786Z,43.88
2022-10-17T14:21:29.124Z,43.78
2022-10-17T14:22:23.804Z,44.23
2022-10-17T14:23:45.177Z,44.48
2022-10-17T14:24:53.630Z,43.36
2022-10-17T14:26:21.472Z,43.33
2022-10-17T14:27:38.501Z,42.97
2022-10-17T14:29:23.795Z,43.33
2022-10-17T14:30:51.711Z,43.89
2022-10-17T14:31:50.990Z,43.74
2022-10-17T14:33:03.688Z,43.72
2022-10-17T14:34:06.514Z,43.84
2022-10-17T14:35:40.349Z,43.87
2022-10-17T14:36:44.716Z,43.03
2022-10-17T14:37:50.792Z,43.24
2022-10-17T14:38:54.051Z,43.63
2022-10-17T14:40:00.225Z,43.78
2022-10-17T14:42:41.679Z,44.26
2022-10-17T14:43:44.902Z,44.78
2022-10-17T14:44:52.633Z,44.34
2022-10-17T14:46:03.075Z,44.35
2022-10-17T14:47:38.077Z,44.23
2022-10-17T14:48:33.116Z,44.40
2022-10-17T14:49:41.137Z,44.57
2022-10-17T14:51:09.588Z,45.23
2022-10-17T14:52:29.007Z,45.17
2022-10-17T14:53:32.180Z,45.43
2022-10-17T14:54:36.572Z,45.45
2022-10-17T14:55:56.746Z,45.42
2022-10-17T14:56:59.742Z,44.82
2022-10-17T14:58:22.674Z,44.77